LSZB/BRN METAR and TAF weather

Enter ICAO airport designator
Station Type Date Time Source
LSZB METAR 2019/12/10 19:50 UTC NOAA

LSZB 101950Z AUTO 12004KT CAVOK M02/M04 Q1023


Station Type Date Time Source
LSZB Decoded METAR 2019/12/10 19:50 UTC NOAA

Bern / Belp , Switzerland (LSZB) 46-55N 007-30E
Dec 10, 2019 - 02:50 PM EST / 2019.12.10 1950 UTC
Wind: from the ESE (120 degrees) at 5 MPH (4 KT):0
Visibility: greater than 7 mile(s):0
Temperature: 28 F (-2 C)
Windchill: 23 F (-5 C):1
Dew Point: 24 F (-4 C)
Relative Humidity: 86%
Pressure (altimeter): 30.21 in. Hg (1023 hPa)
ob: LSZB 101950Z AUTO 12004KT CAVOK M02/M04 Q1023
cycle: 20

Station Type Date Time Source
LSZB TAF 2014/12/22 20:03 UTC NOAA

TAF
AMD TAF
AMD LSZB 222054Z 2220/2224 CNL

Example: see airport list